YQK weather

Kenora Airport
Kenora, Ontario, Canada

Public forecast

Using degrees Celsius for public forecast. Weather courtesy of forecast.io.

Current aviation weather report (METAR) for Kenora Airport

Retrieved 2020/04/06 09:00 UTC (38 minutes ago):

CYQK 060900Z 08006KT 20SM FEW110 SCT240 M00/M03 A3000 RMK AC2CI1 SLP177

Aviation forecast (TAF) for Kenora Airport

Retrieved 2020/04/06 08:42 UTC (56 minutes ago):

TAF CYQK 060740Z 0608/0620 13005KT P6SM FEW100 FEW160 SCT240 FM061200 13006KT P6SM SCT050 BKN090 PROB30 0612/0615 BKN007 OVC050 FM061800 14008KT P6SM SCT040 TEMPO 0618/0620 BKN040 RMK NXT FCST BY 061400Z